sensor_id;sensor_type;location;lat;lon;timestamp;P1;durP1;ratioP1;P2;durP2;ratioP2
58152;SDS011;43967;51.634;5.566;2022-12-07T00:02:30;9.40;;;2.47;;
58152;SDS011;43967;51.634;5.566;2022-12-07T00:07:31;8.45;;;2.72;;
58152;SDS011;43967;51.634;5.566;2022-12-07T00:12:33;7.53;;;2.60;;
58152;SDS011;43967;51.634;5.566;2022-12-07T00:17:34;10.70;;;2.73;;
58152;SDS011;43967;51.634;5.566;2022-12-07T00:22:35;7.53;;;2.30;;
58152;SDS011;43967;51.634;5.566;2022-12-07T00:27:36;9.05;;;2.80;;
58152;SDS011;43967;51.634;5.566;2022-12-07T00:32:37;7.80;;;2.27;;
58152;SDS011;43967;51.634;5.566;2022-12-07T00:37:38;8.50;;;2.50;;
58152;SDS011;43967;51.634;5.566;2022-12-07T00:42:39;7.55;;;2.70;;
58152;SDS011;43967;51.634;5.566;2022-12-07T00:47:40;7.38;;;2.17;;
58152;SDS011;43967;51.634;5.566;2022-12-07T00:52:41;7.80;;;2.40;;
58152;SDS011;43967;51.634;5.566;2022-12-07T00:57:43;7.28;;;2.50;;
58152;SDS011;43967;51.634;5.566;2022-12-07T01:02:44;10.68;;;2.30;;
58152;SDS011;43967;51.634;5.566;2022-12-07T01:07:45;6.60;;;2.17;;
58152;SDS011;43967;51.634;5.566;2022-12-07T01:12:46;8.15;;;2.45;;
58152;SDS011;43967;51.634;5.566;2022-12-07T01:17:47;9.50;;;1.90;;
58152;SDS011;43967;51.634;5.566;2022-12-07T01:22:48;6.63;;;2.10;;
58152;SDS011;43967;51.634;5.566;2022-12-07T01:27:49;7.27;;;1.93;;
58152;SDS011;43967;51.634;5.566;2022-12-07T01:32:50;6.68;;;1.98;;
58152;SDS011;43967;51.634;5.566;2022-12-07T01:37:51;6.93;;;2.22;;
58152;SDS011;43967;51.634;5.566;2022-12-07T01:42:52;6.47;;;2.00;;
58152;SDS011;43967;51.634;5.566;2022-12-07T01:47:54;6.68;;;1.88;;
58152;SDS011;43967;51.634;5.566;2022-12-07T01:52:57;6.53;;;1.98;;
58152;SDS011;43967;51.634;5.566;2022-12-07T01:58:02;6.33;;;1.70;;
58152;SDS011;43967;51.634;5.566;2022-12-07T02:08:08;6.38;;;1.92;;
58152;SDS011;43967;51.634;5.566;2022-12-07T02:13:15;6.93;;;1.90;;
58152;SDS011;43967;51.634;5.566;2022-12-07T02:18:32;6.30;;;1.93;;
58152;SDS011;43967;51.634;5.566;2022-12-07T02:39:53;7.18;;;2.10;;
58152;SDS011;43967;51.634;5.566;2022-12-07T02:45:22;5.25;;;1.70;;
58152;SDS011;43967;51.634;5.566;2022-12-07T02:50:26;7.73;;;2.03;;
58152;SDS011;43967;51.634;5.566;2022-12-07T02:55:29;6.28;;;1.70;;
58152;SDS011;43967;51.634;5.566;2022-12-07T03:00:43;6.10;;;1.48;;
58152;SDS011;43967;51.634;5.566;2022-12-07T03:06:06;6.83;;;1.77;;
58152;SDS011;43967;51.634;5.566;2022-12-07T03:11:13;5.30;;;1.43;;
58152;SDS011;43967;51.634;5.566;2022-12-07T03:16:20;5.72;;;1.55;;
58152;SDS011;43967;51.634;5.566;2022-12-07T03:21:42;6.57;;;1.70;;
58152;SDS011;43967;51.634;5.566;2022-12-07T03:26:53;7.57;;;1.53;;
58152;SDS011;43967;51.634;5.566;2022-12-07T03:32:25;6.00;;;1.80;;
58152;SDS011;43967;51.634;5.566;2022-12-07T03:42:48;6.30;;;1.80;;
58152;SDS011;43967;51.634;5.566;2022-12-07T03:53:38;5.45;;;1.55;;
58152;SDS011;43967;51.634;5.566;2022-12-07T03:58:45;5.87;;;1.67;;
58152;SDS011;43967;51.634;5.566;2022-12-07T04:03:46;6.40;;;1.70;;
58152;SDS011;43967;51.634;5.566;2022-12-07T04:08:47;5.22;;;1.50;;
58152;SDS011;43967;51.634;5.566;2022-12-07T04:13:48;5.43;;;1.83;;
58152;SDS011;43967;51.634;5.566;2022-12-07T04:18:50;6.33;;;1.43;;
58152;SDS011;43967;51.634;5.566;2022-12-07T04:23:51;6.18;;;1.52;;
58152;SDS011;43967;51.634;5.566;2022-12-07T04:28:52;5.30;;;1.30;;
58152;SDS011;43967;51.634;5.566;2022-12-07T04:33:53;5.80;;;1.50;;
58152;SDS011;43967;51.634;5.566;2022-12-07T04:38:54;6.57;;;1.48;;
58152;SDS011;43967;51.634;5.566;2022-12-07T04:43:56;6.00;;;1.15;;
58152;SDS011;43967;51.634;5.566;2022-12-07T04:48:59;5.93;;;1.63;;
58152;SDS011;43967;51.634;5.566;2022-12-07T04:54:00;4.93;;;1.47;;
58152;SDS011;43967;51.634;5.566;2022-12-07T04:59:02;4.75;;;1.38;;
58152;SDS011;43967;51.634;5.566;2022-12-07T05:04:04;5.72;;;1.65;;
58152;SDS011;43967;51.634;5.566;2022-12-07T05:09:05;4.37;;;1.10;;
58152;SDS011;43967;51.634;5.566;2022-12-07T05:14:16;4.70;;;1.15;;
58152;SDS011;43967;51.634;5.566;2022-12-07T05:19:19;5.00;;;1.25;;
58152;SDS011;43967;51.634;5.566;2022-12-07T05:24:20;5.40;;;1.50;;
58152;SDS011;43967;51.634;5.566;2022-12-07T05:29:21;5.25;;;1.45;;
58152;SDS011;43967;51.634;5.566;2022-12-07T05:34:22;5.63;;;1.52;;
58152;SDS011;43967;51.634;5.566;2022-12-07T05:39:23;5.40;;;1.53;;
58152;SDS011;43967;51.634;5.566;2022-12-07T05:44:24;5.93;;;1.53;;
58152;SDS011;43967;51.634;5.566;2022-12-07T05:49:26;6.38;;;1.40;;
58152;SDS011;43967;51.634;5.566;2022-12-07T05:54:27;4.57;;;1.15;;
58152;SDS011;43967;51.634;5.566;2022-12-07T05:59:28;5.83;;;1.10;;
58152;SDS011;43967;51.634;5.566;2022-12-07T06:04:30;4.90;;;1.33;;
58152;SDS011;43967;51.634;5.566;2022-12-07T06:09:33;4.68;;;1.10;;
58152;SDS011;43967;51.634;5.566;2022-12-07T06:14:35;5.40;;;1.60;;
58152;SDS011;43967;51.634;5.566;2022-12-07T06:19:36;4.72;;;1.20;;
58152;SDS011;43967;51.634;5.566;2022-12-07T06:24:38;4.63;;;1.60;;
58152;SDS011;43967;51.634;5.566;2022-12-07T06:29:39;4.90;;;1.33;;
58152;SDS011;43967;51.634;5.566;2022-12-07T06:34:40;4.77;;;1.20;;
58152;SDS011;43967;51.634;5.566;2022-12-07T06:39:41;5.07;;;1.10;;
58152;SDS011;43967;51.634;5.566;2022-12-07T06:44:42;5.88;;;1.50;;
58152;SDS011;43967;51.634;5.566;2022-12-07T06:49:44;11.33;;;1.93;;
58152;SDS011;43967;51.634;5.566;2022-12-07T06:54:45;14.20;;;2.03;;
58152;SDS011;43967;51.634;5.566;2022-12-07T06:59:46;8.50;;;1.70;;
58152;SDS011;43967;51.634;5.566;2022-12-07T07:04:47;9.30;;;1.60;;
58152;SDS011;43967;51.634;5.566;2022-12-07T07:09:48;8.43;;;1.70;;
58152;SDS011;43967;51.634;5.566;2022-12-07T07:14:51;11.13;;;1.95;;
58152;SDS011;43967;51.634;5.566;2022-12-07T07:19:52;9.97;;;1.87;;
58152;SDS011;43967;51.634;5.566;2022-12-07T07:24:53;7.27;;;1.30;;
58152;SDS011;43967;51.634;5.566;2022-12-07T07:29:54;7.90;;;1.65;;
58152;SDS011;43967;51.634;5.566;2022-12-07T07:34:56;11.85;;;2.05;;
58152;SDS011;43967;51.634;5.566;2022-12-07T07:39:58;7.87;;;1.47;;
58152;SDS011;43967;51.634;5.566;2022-12-07T07:44:59;8.30;;;1.83;;
58152;SDS011;43967;51.634;5.566;2022-12-07T07:50:00;6.18;;;1.17;;
58152;SDS011;43967;51.634;5.566;2022-12-07T07:55:01;10.30;;;1.50;;
58152;SDS011;43967;51.634;5.566;2022-12-07T08:00:03;5.47;;;1.38;;
58152;SDS011;43967;51.634;5.566;2022-12-07T08:05:06;5.47;;;1.10;;
58152;SDS011;43967;51.634;5.566;2022-12-07T08:10:08;8.33;;;1.50;;
58152;SDS011;43967;51.634;5.566;2022-12-07T08:15:12;7.20;;;1.30;;
58152;SDS011;43967;51.634;5.566;2022-12-07T08:20:13;6.93;;;1.40;;
58152;SDS011;43967;51.634;5.566;2022-12-07T08:25:14;6.65;;;1.25;;
58152;SDS011;43967;51.634;5.566;2022-12-07T08:30:16;5.90;;;1.30;;
58152;SDS011;43967;51.634;5.566;2022-12-07T08:35:17;7.97;;;1.20;;
58152;SDS011;43967;51.634;5.566;2022-12-07T08:40:18;6.75;;;1.23;;
58152;SDS011;43967;51.634;5.566;2022-12-07T08:45:20;6.40;;;1.70;;
58152;SDS011;43967;51.634;5.566;2022-12-07T08:50:22;6.13;;;1.15;;
58152;SDS011;43967;51.634;5.566;2022-12-07T08:55:24;6.40;;;1.42;;
58152;SDS011;43967;51.634;5.566;2022-12-07T09:00:26;8.70;;;1.30;;
58152;SDS011;43967;51.634;5.566;2022-12-07T09:05:27;5.53;;;1.40;;
58152;SDS011;43967;51.634;5.566;2022-12-07T09:10:28;6.63;;;1.40;;
58152;SDS011;43967;51.634;5.566;2022-12-07T09:15:30;6.45;;;1.25;;
58152;SDS011;43967;51.634;5.566;2022-12-07T09:20:31;5.83;;;1.60;;
58152;SDS011;43967;51.634;5.566;2022-12-07T14:08:23;27.02;;;10.02;;
58152;SDS011;43967;51.634;5.566;2022-12-07T14:25:21;23.25;;;9.75;;
58152;SDS011;43967;51.634;5.566;2022-12-07T14:30:23;14.35;;;4.97;;
58152;SDS011;43967;51.634;5.566;2022-12-07T14:35:29;16.90;;;7.67;;
58152;SDS011;43967;51.634;5.566;2022-12-07T14:40:31;16.77;;;6.38;;
58152;SDS011;43967;51.634;5.566;2022-12-07T14:45:33;17.67;;;6.30;;
58152;SDS011;43967;51.634;5.566;2022-12-07T14:50:35;18.73;;;6.07;;
58152;SDS011;43967;51.634;5.566;2022-12-07T14:55:39;16.40;;;5.30;;
58152;SDS011;43967;51.634;5.566;2022-12-07T15:00:40;16.30;;;6.00;;
58152;SDS011;43967;51.634;5.566;2022-12-07T15:06:02;14.70;;;5.32;;
58152;SDS011;43967;51.634;5.566;2022-12-07T15:11:04;16.63;;;5.10;;
58152;SDS011;43967;51.634;5.566;2022-12-07T15:16:07;14.93;;;4.53;;
58152;SDS011;43967;51.634;5.566;2022-12-07T15:21:14;16.58;;;4.95;;
58152;SDS011;43967;51.634;5.566;2022-12-07T15:26:16;17.17;;;4.87;;
58152;SDS011;43967;51.634;5.566;2022-12-07T15:31:17;12.27;;;4.50;;
58152;SDS011;43967;51.634;5.566;2022-12-07T15:36:20;9.45;;;2.95;;
58152;SDS011;43967;51.634;5.566;2022-12-07T15:41:23;11.90;;;3.83;;
58152;SDS011;43967;51.634;5.566;2022-12-07T15:46:37;12.27;;;3.80;;
58152;SDS011;43967;51.634;5.566;2022-12-07T15:51:41;11.70;;;3.60;;
58152;SDS011;43967;51.634;5.566;2022-12-07T15:56:43;12.80;;;4.63;;
58152;SDS011;43967;51.634;5.566;2022-12-07T16:01:44;14.90;;;3.93;;
58152;SDS011;43967;51.634;5.566;2022-12-07T16:06:45;10.77;;;3.28;;
58152;SDS011;43967;51.634;5.566;2022-12-07T16:11:47;12.63;;;3.42;;
58152;SDS011;43967;51.634;5.566;2022-12-07T16:16:48;14.30;;;3.53;;
58152;SDS011;43967;51.634;5.566;2022-12-07T16:21:49;12.15;;;3.30;;
58152;SDS011;43967;51.634;5.566;2022-12-07T16:26:51;17.77;;;3.10;;
58152;SDS011;43967;51.634;5.566;2022-12-07T16:31:52;9.03;;;3.07;;
58152;SDS011;43967;51.634;5.566;2022-12-07T16:36:53;69.27;;;13.40;;
58152;SDS011;43967;51.634;5.566;2022-12-07T16:41:54;31.85;;;7.13;;
58152;SDS011;43967;51.634;5.566;2022-12-07T16:46:55;18.75;;;5.65;;
58152;SDS011;43967;51.634;5.566;2022-12-07T16:51:56;26.83;;;6.53;;
58152;SDS011;43967;51.634;5.566;2022-12-07T16:56:57;21.80;;;5.57;;
58152;SDS011;43967;51.634;5.566;2022-12-07T17:01:59;22.23;;;5.68;;
58152;SDS011;43967;51.634;5.566;2022-12-07T17:07:00;21.47;;;5.40;;
58152;SDS011;43967;51.634;5.566;2022-12-07T17:12:01;19.25;;;4.60;;
58152;SDS011;43967;51.634;5.566;2022-12-07T17:17:02;17.95;;;5.07;;
58152;SDS011;43967;51.634;5.566;2022-12-07T17:22:03;18.80;;;4.77;;
58152;SDS011;43967;51.634;5.566;2022-12-07T17:27:04;19.83;;;4.33;;
58152;SDS011;43967;51.634;5.566;2022-12-07T17:32:05;19.65;;;4.70;;
58152;SDS011;43967;51.634;5.566;2022-12-07T17:37:07;17.50;;;4.43;;
58152;SDS011;43967;51.634;5.566;2022-12-07T17:42:08;14.63;;;3.77;;
58152;SDS011;43967;51.634;5.566;2022-12-07T17:47:09;19.83;;;3.83;;
58152;SDS011;43967;51.634;5.566;2022-12-07T17:52:11;16.08;;;3.80;;
58152;SDS011;43967;51.634;5.566;2022-12-07T17:57:12;13.33;;;3.67;;
58152;SDS011;43967;51.634;5.566;2022-12-07T18:02:13;13.95;;;3.85;;
58152;SDS011;43967;51.634;5.566;2022-12-07T18:07:14;14.80;;;3.67;;
58152;SDS011;43967;51.634;5.566;2022-12-07T18:12:16;15.10;;;4.10;;
58152;SDS011;43967;51.634;5.566;2022-12-07T18:17:17;13.03;;;3.60;;
58152;SDS011;43967;51.634;5.566;2022-12-07T18:22:18;12.65;;;3.35;;
58152;SDS011;43967;51.634;5.566;2022-12-07T18:27:19;10.13;;;2.88;;
58152;SDS011;43967;51.634;5.566;2022-12-07T18:32:20;8.90;;;2.80;;
58152;SDS011;43967;51.634;5.566;2022-12-07T18:37:21;8.70;;;3.03;;
58152;SDS011;43967;51.634;5.566;2022-12-07T18:42:22;11.77;;;3.00;;
58152;SDS011;43967;51.634;5.566;2022-12-07T18:47:24;12.13;;;2.70;;
58152;SDS011;43967;51.634;5.566;2022-12-07T18:59:01;11.93;;;3.40;;
58152;SDS011;43967;51.634;5.566;2022-12-07T19:04:03;12.80;;;2.90;;
58152;SDS011;43967;51.634;5.566;2022-12-07T19:16:17;13.68;;;2.70;;
58152;SDS011;43967;51.634;5.566;2022-12-07T19:28:25;12.03;;;2.30;;
58152;SDS011;43967;51.634;5.566;2022-12-07T19:33:42;8.65;;;2.88;;
58152;SDS011;43967;51.634;5.566;2022-12-07T19:50:16;8.15;;;2.58;;
58152;SDS011;43967;51.634;5.566;2022-12-07T19:55:17;12.35;;;2.47;;
58152;SDS011;43967;51.634;5.566;2022-12-07T20:00:18;8.77;;;2.23;;
58152;SDS011;43967;51.634;5.566;2022-12-07T20:05:20;14.30;;;2.33;;
58152;SDS011;43967;51.634;5.566;2022-12-07T20:10:21;14.05;;;2.65;;
58152;SDS011;43967;51.634;5.566;2022-12-07T20:15:22;11.27;;;2.25;;
58152;SDS011;43967;51.634;5.566;2022-12-07T20:20:23;13.80;;;2.30;;
58152;SDS011;43967;51.634;5.566;2022-12-07T20:25:24;9.20;;;2.47;;
58152;SDS011;43967;51.634;5.566;2022-12-07T20:30:26;10.70;;;2.40;;
58152;SDS011;43967;51.634;5.566;2022-12-07T20:35:28;10.77;;;2.20;;
58152;SDS011;43967;51.634;5.566;2022-12-07T20:40:29;9.30;;;2.25;;
58152;SDS011;43967;51.634;5.566;2022-12-07T20:45:30;11.25;;;2.40;;
58152;SDS011;43967;51.634;5.566;2022-12-07T20:50:31;9.30;;;2.40;;
58152;SDS011;43967;51.634;5.566;2022-12-07T20:55:32;8.03;;;1.80;;
58152;SDS011;43967;51.634;5.566;2022-12-07T21:00:34;8.07;;;2.17;;
58152;SDS011;43967;51.634;5.566;2022-12-07T21:05:36;9.20;;;2.53;;
58152;SDS011;43967;51.634;5.566;2022-12-07T21:10:37;9.10;;;2.27;;
58152;SDS011;43967;51.634;5.566;2022-12-07T21:15:38;11.85;;;2.33;;
58152;SDS011;43967;51.634;5.566;2022-12-07T21:20:39;9.65;;;2.45;;
58152;SDS011;43967;51.634;5.566;2022-12-07T21:25:41;10.20;;;2.30;;
58152;SDS011;43967;51.634;5.566;2022-12-07T21:30:42;7.13;;;2.00;;
58152;SDS011;43967;51.634;5.566;2022-12-07T21:35:43;8.32;;;2.25;;
58152;SDS011;43967;51.634;5.566;2022-12-07T21:40:44;8.53;;;2.23;;
58152;SDS011;43967;51.634;5.566;2022-12-07T21:45:49;8.17;;;2.77;;
58152;SDS011;43967;51.634;5.566;2022-12-07T21:50:51;7.65;;;2.20;;
58152;SDS011;43967;51.634;5.566;2022-12-07T21:55:52;12.73;;;2.33;;
58152;SDS011;43967;51.634;5.566;2022-12-07T22:00:53;8.20;;;2.20;;
58152;SDS011;43967;51.634;5.566;2022-12-07T22:06:00;8.77;;;2.22;;
